Latest Weather Observations for Clare

IDS60801

Issued at 2:02 pm CST Saturday 1 October 2016 (issued every 30 minutes, with the page automatically refreshed every 10 minutes)

About weather observations | Map of weather stations | Latest weather observations for SA | Other Formats
Station Details ID: 021131 Name: CLARE HIGH SCHOOL Lat: -33.82 Lon: 138.59 Height: 395.0 m
Data from the previous 72 hours. | See also: Recent months at Clare
Date/Time
CST
Temp
°C
App
Temp
°C
Dew
Point
°C
Rel
Hum
%
Delta-T
°C
Wind Press
QNH
hPa
Press
MSL
hPa
Rain since
9am
mm
Dir  Spd
km/h
Gust
km/h
Spd
kts
Gust
kts
01/02:00pm 17.2 11.5 3.1 39 6.6 NW 22 35 12 19 1006.2 - 0.0
01/01:30pm 17.2 12.3 5.2 45 5.9 NW 20 33 11 18 1006.6 - 0.0
01/01:00pm 16.3 11.0 5.0 47 5.5 NW 22 35 12 19 1006.9 - 0.0
01/12:30pm 15.9 9.9 5.5 50 5.1 NW 26 39 14 21 1007.3 - 0.0
01/12:00pm 15.4 10.9 6.1 54 4.6 NW 19 33 10 18 1007.6 1007.0 0.0
01/11:30am 14.8 11.1 7.8 63 3.6 NW 17 35 9 19 1007.7 - 0.0
01/11:00am 14.0 9.8 7.3 64 3.4 NW 19 28 10 15 1008.3 - 0.0
01/10:30am 13.4 9.1 7.0 65 3.2 NNW 19 30 10 16 1008.3 - 0.0
01/10:00am 12.4 9.0 7.5 72 2.4 NNW 15 24 8 13 1008.5 - 0.0
01/09:30am 11.5 7.6 7.2 75 2.1 NNW 17 24 9 13 1008.7 - 0.0
01/09:00am 10.5 6.5 6.8 78 1.8 NNW 17 24 9 13 1008.7 1008.2 3.8
01/08:30am 9.6 5.0 5.6 76 1.9 NNW 19 26 10 14 1008.5 - 3.8
01/08:00am 9.0 5.1 5.4 78 1.7 NW 15 24 8 13 1008.6 - 3.8
01/07:30am 8.0 5.9 5.6 85 1.1 NNW 6 15 3 8 1008.4 - 3.8
01/07:00am 6.8 5.7 5.1 89 0.8 CALM 0 0 0 0 1008.3 - 3.8
01/06:30am 5.8 4.6 4.8 93 0.4 CALM 0 9 0 5 1008.1 - 3.8
01/06:00am 6.2 4.2 4.5 89 0.8 W 4 9 2 5 1007.9 1007.3 3.8
01/05:30am 6.9 5.1 5.5 91 0.6 W 4 13 2 7 1007.9 - 3.8
01/05:00am 7.0 4.0 6.1 94 0.4 W 11 19 6 10 1007.9 - 3.8
01/04:30am 7.0 3.8 6.9 99 0.0 W 13 20 7 11 1007.7 - 3.6
01/04:00am 7.3 3.8 7.2 99 0.0 W 15 24 8 13 1007.6 - 3.6
01/03:30am 7.5 4.8 7.4 99 0.0 W 11 28 6 15 1007.5 - 3.6
01/03:00am 7.6 4.6 7.5 99 0.0 W 13 20 7 11 1007.6 1007.0 3.6
01/02:30am 7.6 4.6 7.5 99 0.0 W 13 20 7 11 1007.7 - 3.6
01/02:00am 7.7 4.7 7.6 99 0.0 W 13 24 7 13 1007.8 - 3.6
01/01:30am 7.9 5.3 7.9 100 0.0 W 11 22 6 12 1007.8 - 3.6
01/01:00am 7.9 4.9 7.9 100 0.0 W 13 20 7 11 1007.9 - 3.6
01/12:30am 8.0 4.3 8.0 100 0.0 W 17 24 9 13 1008.0 - 3.6
01/12:00am 8.0 4.7 8.0 100 0.0 W 15 20 8 11 1008.1 1007.5 3.6
 
Date/Time
CST
Temp
°C
App
Temp
°C
Dew
Point
°C
Rel
Hum
%
Delta-T
°C
Wind Press
QNH
hPa
Press
MSL
hPa
Rain since
9am
mm
Dir  Spd
km/h
Gust
km/h
Spd
kts
Gust
kts
30/11:30pm 8.1 4.8 8.0 99 0.0 W 15 28 8 15 1008.0 - 3.4
30/11:00pm 8.2 6.1 8.1 99 0.0 W 9 19 5 10 1007.9 - 3.2
30/10:30pm 8.2 5.3 8.1 99 0.0 W 13 22 7 12 1007.9 - 3.2
30/10:00pm 8.3 6.2 8.2 99 0.0 W 9 22 5 12 1008.0 - 2.8
30/09:30pm 8.3 5.8 8.2 99 0.0 W 11 19 6 10 1008.3 - 2.8
30/09:00pm 8.5 6.4 8.4 99 0.0 W 9 15 5 8 1008.1 1008.1 2.8
30/08:30pm 8.6 6.6 8.5 99 0.0 W 9 19 5 10 1007.8 - 2.8
30/08:00pm 8.7 7.1 8.6 99 0.0 W 7 20 4 11 1007.9 - 2.4
30/07:30pm 9.0 7.1 8.9 99 0.0 WSW 9 15 5 8 1007.6 - 2.4
30/07:00pm 9.1 6.3 8.5 96 0.3 W 13 28 7 15 1007.1 - 2.4
30/06:30pm 9.6 7.8 9.3 98 0.2 W 9 17 5 9 1006.9 - 2.4
30/06:00pm 9.6 6.5 8.7 94 0.5 W 15 24 8 13 1006.5 1006.5 2.4
30/05:30pm 9.9 6.8 8.7 92 0.6 WSW 15 26 8 14 1006.3 - 2.4
30/05:00pm 10.3 6.8 8.7 90 0.8 WSW 17 30 9 16 1006.1 - 2.4
30/04:30pm 10.9 6.9 8.3 84 1.3 WSW 19 30 10 16 1005.6 - 2.4
30/04:00pm 10.8 6.4 9.1 89 0.9 WSW 22 37 12 20 1005.6 - 2.4
30/03:30pm 11.5 7.6 8.7 83 1.4 WSW 19 33 10 18 1005.4 - 2.4
30/03:00pm 11.3 7.5 8.9 85 1.2 WSW 19 32 10 17 1005.3 1005.2 2.4
30/02:30pm 10.9 6.5 9.0 88 1.0 WSW 22 41 12 22 1005.3 - 2.4
30/02:00pm 11.0 5.5 9.1 88 1.0 WSW 28 44 15 24 1005.0 - 2.4
30/01:43pm 11.6 6.1 9.2 85 1.2 W 28 46 15 25 1004.9 - 2.2
30/01:30pm 11.0 6.5 9.9 93 0.6 WSW 24 39 13 21 1005.1 - 2.2
30/01:17pm 10.5 5.1 9.6 94 0.5 WSW 28 48 15 26 1004.9 - 2.2
30/01:00pm 10.7 6.0 10.5 99 0.1 WSW 26 44 14 24 1005.0 - 2.2
30/12:54pm 10.1 4.8 9.9 99 0.1 WSW 28 56 15 30 1005.0 - 2.2
30/12:30pm 10.2 5.7 9.9 98 0.2 SW 24 44 13 24 1005.0 - 1.8
30/12:00pm 10.8 6.3 10.0 95 0.4 WSW 24 48 13 26 1004.9 1004.8 1.8
30/11:30am 10.4 4.8 10.2 99 0.1 WSW 30 50 16 27 1004.8 - 1.8
30/11:29am 10.2 4.9 9.9 98 0.2 WSW 28 50 15 27 1004.8 - 1.8
30/11:00am 10.9 6.2 10.7 99 0.1 WSW 26 50 14 27 1004.7 - 1.8
30/10:54am 10.4 5.2 10.2 99 0.1 WSW 28 46 15 25 1004.6 - 1.8
30/10:30am 10.1 5.6 9.9 99 0.1 WSW 24 43 13 23 1004.4 - 1.2
30/10:00am 10.1 5.6 9.9 99 0.1 WSW 24 43 13 23 1004.0 - 1.0
30/09:30am 10.0 4.7 9.9 99 0.1 WSW 28 46 15 25 1003.8 - 0.0
30/09:26am 9.7 4.3 9.6 99 0.1 W 28 46 15 25 1003.8 - 0.0
30/09:00am 9.4 5.1 9.4 100 0.0 W 22 37 12 20 1003.7 1003.7 32.8
30/08:30am 9.1 4.7 9.1 100 0.0 W 22 41 12 22 1003.6 - 32.8
30/08:00am 8.7 4.6 8.7 100 0.0 W 20 33 11 18 1003.2 - 32.8
30/07:30am 8.2 4.9 8.2 100 0.0 W 15 28 8 15 1002.9 - 32.8
30/07:00am 7.8 4.1 7.8 100 0.0 W 17 28 9 15 1002.7 - 32.8
30/06:30am 7.3 4.2 7.3 100 0.0 W 13 22 7 12 1001.8 - 32.8
30/06:00am 7.3 3.8 7.3 100 0.0 WSW 15 28 8 15 1001.7 1001.7 32.8
30/05:30am 7.3 3.8 7.3 100 0.0 W 15 26 8 14 1001.0 - 32.8
30/05:00am 7.2 3.3 7.2 100 0.0 W 17 26 9 14 1000.4 - 32.8
30/04:30am 7.4 3.2 7.4 100 0.0 WSW 19 32 10 17 999.8 - 32.8
30/04:00am 7.7 3.9 7.7 100 0.0 WSW 17 28 9 15 999.3 - 32.8
30/03:30am 7.9 3.2 7.9 100 0.0 WSW 22 37 12 20 999.0 - 32.8
30/03:00am 7.9 3.2 7.9 100 0.0 SW 22 43 12 23 998.7 998.6 32.8
30/02:30am 8.0 3.4 8.0 100 0.0 WSW 22 33 12 18 998.1 - 32.2
30/02:00am 8.0 1.8 8.0 100 0.0 W 30 52 16 28 997.5 - 31.4
30/01:30am 7.8 1.2 7.8 100 0.0 W 32 54 17 29 997.4 - 29.0
30/01:00am 7.7 1.8 7.7 100 0.0 W 28 63 15 34 997.5 - 28.4
30/12:30am 7.6 1.3 7.6 100 0.0 W 30 54 16 29 997.5 - 28.0
30/12:00am 7.4 1.5 7.4 100 0.0 W 28 52 15 28 997.4 997.3 25.6
 
Date/Time
CST
Temp
°C
App
Temp
°C
Dew
Point
°C
Rel
Hum
%
Delta-T
°C
Wind Press
QNH
hPa
Press
MSL
hPa
Rain since
9am
mm
Dir  Spd
km/h
Gust
km/h
Spd
kts
Gust
kts
29/11:30pm 7.4 1.1 7.4 100 0.0 W 30 54 16 29 997.4 - 24.6
29/11:00pm 7.4 0.7 7.4 100 0.0 W 32 57 17 31 997.8 - 24.0
29/10:30pm 7.5 1.2 7.5 100 0.0 W 30 48 16 26 998.1 - 23.4
29/10:00pm 7.5 1.2 7.5 100 0.0 W 30 50 16 27 998.1 - 22.6
29/09:30pm 7.5 1.2 7.5 100 0.0 W 30 56 16 30 998.0 - 22.6
29/09:00pm 7.7 1.1 7.7 100 0.0 W 32 54 17 29 997.8 997.7 22.0
29/08:30pm 7.8 2.0 7.8 100 0.0 W 28 54 15 29 997.5 - 21.8
29/08:00pm 7.9 2.1 7.9 100 0.0 W 28 48 15 26 997.2 - 21.2
29/07:30pm 8.0 1.5 8.0 100 0.0 W 32 50 17 27 996.8 - 21.0
29/07:00pm 8.1 1.9 8.0 99 0.0 W 30 52 16 28 996.2 - 20.4
29/06:30pm 8.1 1.4 8.0 99 0.0 W 33 59 18 32 995.5 - 19.8
29/06:00pm 8.2 1.7 8.1 99 0.0 W 32 61 17 33 994.8 994.7 19.6
29/05:30pm 8.2 1.1 8.1 99 0.0 W 35 59 19 32 994.2 - 19.0
29/05:00pm 8.3 1.8 8.2 99 0.0 W 32 59 17 32 993.3 - 18.8
29/04:30pm 8.5 2.4 8.4 99 0.0 W 30 61 16 33 992.8 - 17.6
29/04:00pm 8.5 1.5 8.4 99 0.0 W 35 63 19 34 992.1 - 16.4
29/03:30pm 8.3 0.1 8.2 99 0.0 W 41 70 22 38 991.5 - 16.4
29/03:00pm 8.3 0.9 8.2 99 0.0 W 37 61 20 33 991.0 990.9 15.8
29/02:30pm 8.3 0.9 8.2 99 0.0 W 37 63 20 34 990.8 - 15.2
29/02:00pm 8.2 1.1 8.1 99 0.0 W 35 61 19 33 990.4 - 14.0
29/01:30pm 8.3 0.9 8.2 99 0.0 W 37 65 20 35 990.2 - 12.2
29/01:00pm 8.3 1.2 8.2 99 0.0 W 35 67 19 36 989.6 - 11.4
29/12:40pm 8.0 2.2 7.9 99 0.0 W 28 61 15 33 989.2 - 11.0
29/12:30pm 6.8 1.1 6.7 99 0.0 W 26 44 14 24 989.4 - 10.0
29/12:00pm 8.3 1.8 8.2 99 0.0 W 32 56 17 30 989.5 989.3 7.8
29/11:44am 8.8 2.0 7.9 94 0.4 W 33 76 18 41 989.0 - 7.6
29/11:30am 9.5 2.5 8.6 94 0.4 W 35 57 19 31 989.0 - 7.2
29/11:00am 8.2 1.6 7.8 97 0.2 W 32 50 17 27 988.7 - 5.8
29/10:30am 8.8 0.1 7.6 92 0.6 WNW 43 72 23 39 988.2 - 5.0
29/10:00am 8.6 0.7 7.8 95 0.4 WNW 39 76 21 41 987.8 - 4.8
29/09:30am 7.8 0.6 7.7 99 0.0 W 35 57 19 31 986.9 - 4.8
29/09:13am 6.8 0.0 6.7 99 0.0 WSW 32 56 17 30 986.5 - 4.0
29/09:00am 7.5 -1.3 7.4 99 0.0 W 43 74 23 40 986.6 986.4 53.8
29/08:30am 7.4 -1.4 7.3 99 0.0 WNW 43 65 23 35 986.2 - 52.8
29/08:00am 6.9 -1.6 6.8 99 0.0 WNW 41 63 22 34 985.1 - 51.0
29/07:30am 6.4 -2.6 6.3 99 0.0 WNW 43 70 23 38 984.9 - 50.8
29/07:00am 6.0 -3.7 5.9 99 0.0 NW 46 76 25 41 984.6 - 49.6
29/06:30am 5.3 -3.2 5.2 99 0.0 NW 39 70 21 38 984.6 - 49.0
29/06:00am 5.1 -3.4 5.0 99 0.0 NW 39 70 21 38 985.4 985.2 46.4
29/05:30am 5.3 -4.0 5.0 98 0.1 NW 43 67 23 36 985.5 - 44.6
29/05:00am 5.2 -3.0 4.9 98 0.1 NW 37 57 20 31 986.7 - 44.2
29/04:30am 5.1 -2.7 4.7 97 0.2 NW 35 65 19 35 987.4 - 43.4
29/04:00am 5.1 -1.4 4.8 98 0.1 NW 28 50 15 27 988.0 - 43.0
29/03:30am 5.4 -2.2 4.1 91 0.6 NW 33 54 18 29 988.2 - 42.2
29/03:00am 5.5 -1.4 4.5 93 0.4 NNW 30 56 16 30 989.3 989.1 41.8
29/02:30am 5.9 -1.5 4.2 89 0.7 NNW 32 50 17 27 990.2 - 41.6
29/02:00am 5.9 -1.0 4.4 90 0.7 NNW 30 48 16 26 991.1 - 41.6
29/01:41am 5.8 -0.7 4.8 93 0.4 NW 28 46 15 25 991.6 - 41.6
29/01:30am 5.6 -0.5 4.9 95 0.3 NW 26 41 14 22 991.8 - 41.6
29/01:00am 5.9 -0.3 4.5 91 0.6 NW 26 41 14 22 992.9 - 41.2
29/12:30am 5.9 0.1 4.5 91 0.6 NW 24 37 13 20 993.4 - 41.2
29/12:00am 6.0 -0.3 4.0 87 0.9 NW 26 44 14 24 993.8 993.7 41.2
 
Date/Time
CST
Temp
°C
App
Temp
°C
Dew
Point
°C
Rel
Hum
%
Delta-T
°C
Wind Press
QNH
hPa
Press
MSL
hPa
Rain since
9am
mm
Dir  Spd
km/h
Gust
km/h
Spd
kts
Gust
kts
28/11:30pm 6.3 0.4 4.0 85 1.0 NW 24 44 13 24 994.4 - 41.2
28/11:00pm 6.4 0.6 4.2 86 1.0 NW 24 41 13 22 994.6 - 41.2
28/10:30pm 6.7 0.8 4.0 83 1.2 WNW 24 46 13 25 994.9 - 41.2
28/10:00pm 6.8 1.9 5.0 88 0.8 NW 20 35 11 19 995.3 - 41.2
28/09:30pm 6.8 2.6 5.6 92 0.5 WNW 17 22 9 12 995.6 - 41.2
28/09:00pm 6.7 0.8 5.8 94 0.4 WNW 26 41 14 22 994.9 994.8 41.2
28/08:30pm 6.9 1.2 6.8 99 0.0 WNW 26 39 14 21 995.0 - 41.2
28/08:08pm 6.9 0.8 6.8 99 0.0 W 28 54 15 29 995.0 - 41.2
28/08:00pm 7.1 2.2 6.7 97 0.2 W 22 35 12 19 994.9 - 40.4
28/07:30pm 8.0 3.2 7.4 96 0.3 W 22 41 12 22 994.6 - 38.6
28/07:12pm 8.1 2.2 7.3 95 0.4 W 28 46 15 25 994.7 - 38.6
28/07:00pm 8.2 2.7 7.4 95 0.4 W 26 43 14 23 994.4 - 38.4
28/06:41pm 8.4 2.4 7.2 92 0.6 W 28 50 15 27 994.2 - 37.2
28/06:30pm 9.0 4.4 8.1 94 0.4 W 22 32 12 17 994.1 - 36.4
28/06:00pm 9.8 4.2 8.7 93 0.6 W 28 54 15 29 994.6 994.4 36.0
28/05:30pm 10.7 5.5 10.1 96 0.3 W 28 46 15 25 993.3 - 35.4
28/05:00pm 11.9 7.5 10.3 90 0.8 W 24 43 13 23 992.8 - 34.6
28/04:30pm 12.0 6.1 11.1 94 0.5 W 33 56 18 30 991.3 - 34.6
28/04:18pm 12.6 7.7 12.6 100 0.0 WNW 30 57 16 31 990.5 - 34.4
28/04:00pm 12.0 8.0 11.8 99 0.1 NNW 24 39 13 21 989.9 - 27.8
28/03:47pm 15.4 8.8 11.4 77 2.2 NW 37 56 20 30 990.1 - 9.2
28/03:45pm 17.2 12.6 12.3 73 2.8 NE 28 46 15 25 987.1 - 8.6
28/03:30pm 17.1 12.9 12.4 74 2.6 NNE 26 48 14 26 988.2 - 8.6
28/03:28pm 17.1 12.5 12.4 74 2.6 NNE 28 48 15 26 988.0 - 8.6
28/03:24pm 17.0 12.8 12.3 74 2.6 NNE 26 44 14 24 987.6 - 8.6
28/03:00pm 17.3 13.4 12.2 72 2.9 N 24 43 13 23 989.6 989.4 8.6
28/02:56pm 17.1 13.5 12.0 72 2.9 N 22 37 12 20 989.8 - 8.6
28/02:30pm 17.2 12.6 12.3 73 2.8 N 28 43 15 23 991.8 - 8.6

Other Formats:

Comma delimited format used in spreadsheet applications
http://www.bom.gov.au/fwo/IDS60801/IDS60801.95667.axf

JavaScript Object Notation format (JSON) in row-major order
http://www.bom.gov.au/fwo/IDS60801/IDS60801.95667.json